createdAt,value
2018-09-20T00:01:15.866Z,100860.82
2018-09-20T00:05:59.591Z,100858.99
2018-09-20T00:10:43.380Z,100854.09
2018-09-20T00:15:26.718Z,100854.37
2018-09-20T00:20:10.447Z,100855.70
2018-09-20T00:24:53.896Z,100842.34
2018-09-20T00:29:37.326Z,100843.84
2018-09-20T00:34:20.881Z,100840.72
2018-09-20T00:39:11.034Z,100842.19
2018-09-20T00:43:54.491Z,100835.34
2018-09-20T00:48:38.133Z,100829.77
2018-09-20T00:53:21.446Z,100828.21
2018-09-20T00:58:04.707Z,100827.13
2018-09-20T01:02:48.079Z,100825.58
2018-09-20T01:07:31.475Z,100823.28
2018-09-20T01:12:14.861Z,100820.97
2018-09-20T01:16:59.258Z,100824.78
2018-09-20T01:21:42.567Z,100817.20
2018-09-20T01:26:26.823Z,100822.39
2018-09-20T01:31:10.185Z,100815.25
2018-09-20T01:35:53.558Z,100814.42
2018-09-20T01:40:38.263Z,100813.97
2018-09-20T01:45:21.688Z,100812.39
2018-09-20T01:50:08.180Z,100809.19
2018-09-20T01:54:51.655Z,100804.30
2018-09-20T01:59:35.175Z,100793.91
2018-09-20T02:04:18.570Z,100788.09
2018-09-20T02:09:03.003Z,100789.97
2018-09-20T02:13:47.327Z,100791.94
2018-09-20T02:18:30.847Z,100804.05
2018-09-20T02:23:14.154Z,100792.63
2018-09-20T02:27:57.732Z,100785.62
2018-09-20T02:32:41.182Z,100794.38
2018-09-20T02:37:24.645Z,100796.72
2018-09-20T02:42:08.077Z,100801.34
2018-09-20T02:46:51.387Z,100791.98
2018-09-20T02:51:34.792Z,100793.14
2018-09-20T02:56:19.273Z,100796.53
2018-09-20T03:01:02.467Z,100794.14
2018-09-20T03:05:47.054Z,100795.39
2018-09-20T03:10:30.380Z,100788.52
2018-09-20T03:15:13.843Z,100785.04
2018-09-20T03:20:00.384Z,100786.48
2018-09-20T03:24:43.807Z,100783.23
2018-09-20T03:29:27.390Z,100784.56
2018-09-20T03:34:10.828Z,100784.65
2018-09-20T03:38:54.415Z,100786.16
2018-09-20T03:43:37.676Z,100787.39
2018-09-20T03:48:22.178Z,100788.63
2018-09-20T03:53:05.443Z,100788.12
2018-09-20T03:57:48.963Z,100786.25
2018-09-20T04:02:32.322Z,100787.09
2018-09-20T04:07:15.946Z,100789.00
2018-09-20T04:11:59.211Z,100790.39
2018-09-20T04:16:43.845Z,100789.41
2018-09-20T04:21:32.468Z,100790.69
2018-09-20T04:26:17.061Z,100786.70
2018-09-20T04:31:00.436Z,100790.95
2018-09-20T04:35:54.714Z,100800.03
2018-09-20T04:40:39.542Z,100794.84
2018-09-20T04:45:23.020Z,100795.31
2018-09-20T04:50:06.477Z,100803.52
2018-09-20T04:54:49.839Z,100791.91
2018-09-20T04:59:33.460Z,100801.31
2018-09-20T05:04:16.843Z,100797.52
2018-09-20T05:09:00.318Z,100800.15
2018-09-20T05:13:43.864Z,100798.36
2018-09-20T05:18:27.565Z,100792.58
2018-09-20T05:23:11.568Z,100797.23
2018-09-20T05:27:55.083Z,100795.25
2018-09-20T05:32:38.454Z,100797.78
2018-09-20T05:37:22.094Z,100798.65
2018-09-20T05:42:09.086Z,100795.80
2018-09-20T05:46:52.617Z,100798.12
2018-09-20T05:51:35.948Z,100790.50
2018-09-20T05:56:19.531Z,100798.15
2018-09-20T06:01:02.923Z,100792.52
2018-09-20T06:05:46.594Z,100803.98
2018-09-20T06:10:30.505Z,100798.70
2018-09-20T06:15:17.244Z,100796.06
2018-09-20T06:20:00.589Z,100796.85
2018-09-20T06:24:43.894Z,100800.48
2018-09-20T06:29:28.366Z,100799.14
2018-09-20T06:34:11.764Z,100803.17
2018-09-20T06:38:55.422Z,100792.50
2018-09-20T06:43:38.783Z,100806.95
2018-09-20T06:48:22.464Z,100797.47
2018-09-20T06:53:06.004Z,100791.53
2018-09-20T06:57:52.603Z,100798.70
2018-09-20T07:02:36.058Z,100798.07
2018-09-20T07:07:19.637Z,100804.47
2018-09-20T07:12:03.076Z,100804.73
2018-09-20T07:16:47.474Z,100805.20
2018-09-20T07:21:30.788Z,100802.98
2018-09-20T07:26:15.299Z,100804.76
2018-09-20T07:30:58.681Z,100813.59
2018-09-20T07:35:42.296Z,100819.84
2018-09-20T07:40:29.598Z,100815.55
2018-09-20T07:45:16.121Z,100810.61
2018-09-20T07:49:59.501Z,100815.02
2018-09-20T07:54:42.842Z,100805.47
2018-09-20T07:59:30.029Z,100801.60
2018-09-20T08:04:14.270Z,100795.77
2018-09-20T08:08:57.743Z,100791.14
2018-09-20T08:13:41.138Z,100794.45
2018-09-20T08:18:28.505Z,100788.86
2018-09-20T08:23:11.922Z,100786.91
2018-09-20T08:27:55.569Z,100781.69
2018-09-20T08:32:39.185Z,100781.00
2018-09-20T08:37:22.672Z,100773.94
2018-09-20T08:42:06.198Z,100778.81
2018-09-20T08:46:49.658Z,100783.19
2018-09-20T08:51:33.156Z,100773.50
2018-09-20T08:56:20.332Z,100768.80
2018-09-20T09:01:05.107Z,100765.90
2018-09-20T09:05:49.644Z,100773.98
2018-09-20T09:10:33.675Z,100770.69
2018-09-20T09:15:17.096Z,100771.16
2018-09-20T09:20:00.487Z,100765.67
2018-09-20T09:24:43.934Z,100771.48
2018-09-20T09:29:27.386Z,100762.91
2018-09-20T09:34:10.836Z,100765.55
2018-09-20T09:38:55.522Z,100749.61
2018-09-20T09:43:38.808Z,100748.24
2018-09-20T09:48:22.431Z,100740.58
2018-09-20T09:53:05.781Z,100748.56
2018-09-20T09:57:54.355Z,100740.41
2018-09-20T10:02:40.593Z,100744.31
2018-09-20T10:07:29.309Z,100739.70
2018-09-20T10:12:13.310Z,100722.95
2018-09-20T10:16:59.245Z,100726.70
2018-09-20T10:21:42.719Z,100728.73
2018-09-20T10:26:29.813Z,100723.42
2018-09-20T10:31:13.174Z,100720.88
2018-09-20T10:35:59.193Z,100713.45
2018-09-20T10:40:42.730Z,100709.17
2018-09-20T10:45:27.238Z,100695.20
2018-09-20T10:50:11.577Z,100703.62
2018-09-20T10:54:56.076Z,100703.77
2018-09-20T10:59:40.207Z,100683.36
2018-09-20T11:04:23.529Z,100695.63
2018-09-20T11:09:09.540Z,100682.02
2018-09-20T11:13:53.316Z,100681.41
2018-09-20T11:18:41.379Z,100675.28
2018-09-20T11:23:24.803Z,100688.59
2018-09-20T11:28:09.299Z,100671.67
2018-09-20T11:32:53.512Z,100675.06
2018-09-20T11:37:39.992Z,100666.19
2018-09-20T11:42:23.190Z,100662.62
2018-09-20T11:47:06.787Z,100632.14
2018-09-20T11:51:50.218Z,100660.14
2018-09-20T11:56:37.619Z,100662.20
2018-09-20T12:01:21.096Z,100658.30
2018-09-20T12:06:06.506Z,100646.76
2018-09-20T12:10:49.995Z,100662.43
2018-09-20T12:15:33.586Z,100646.77
2018-09-20T12:20:16.961Z,100653.52
2018-09-20T12:25:00.556Z,100643.65
2018-09-20T12:29:43.942Z,100647.64
2018-09-20T12:34:27.987Z,100639.05
2018-09-20T12:39:13.564Z,100635.52
2018-09-20T12:43:56.884Z,100647.25
2018-09-20T12:48:41.412Z,100636.20
2018-09-20T12:53:25.459Z,100638.91
2018-09-20T12:58:08.894Z,100638.39
2018-09-20T13:02:52.787Z,100627.83
2018-09-20T13:07:36.201Z,100627.70
2018-09-20T13:12:19.474Z,100628.42
2018-09-20T13:17:08.183Z,100626.20
2018-09-20T13:21:51.577Z,100623.00
2018-09-20T13:26:37.205Z,100613.05
2018-09-20T13:31:20.675Z,100620.76
2018-09-20T13:36:07.310Z,100615.83
2018-09-20T13:40:50.669Z,100613.08
2018-09-20T13:45:35.442Z,100615.67
2018-09-20T13:50:19.103Z,100621.11
2018-09-20T13:55:03.775Z,100618.32
2018-09-20T13:59:47.166Z,100614.02
2018-09-20T14:04:30.733Z,100613.61
2018-09-20T14:09:15.073Z,100614.81
2018-09-20T14:13:58.562Z,100616.56
2018-09-20T14:18:42.209Z,100616.58
2018-09-20T14:23:25.690Z,100616.50
2018-09-20T14:28:12.095Z,100608.86
2018-09-20T14:32:55.285Z,100609.09
2018-09-20T14:37:38.664Z,100610.38
2018-09-20T14:42:22.968Z,100611.39
2018-09-20T14:47:06.588Z,100611.06
2018-09-20T14:51:49.934Z,100613.18
2018-09-20T14:56:33.628Z,100612.35
2018-09-20T15:01:16.974Z,100616.07
2018-09-20T15:07:33.151Z,100615.25
2018-09-20T15:12:18.021Z,100609.96
2018-09-20T15:17:02.772Z,100616.59
2018-09-20T15:21:46.562Z,100617.02
2018-09-20T15:26:33.766Z,100629.02
2018-09-20T15:31:17.239Z,100619.48
2018-09-20T15:36:00.834Z,100619.72
2018-09-20T15:40:44.949Z,100622.17
2018-09-20T15:45:28.695Z,100614.88
2018-09-20T15:50:12.134Z,100614.42
2018-09-20T15:54:58.685Z,100609.89
2018-09-20T15:59:42.913Z,100611.77
2018-09-20T16:04:27.293Z,100610.94
2018-09-20T16:09:12.885Z,100614.24
2018-09-20T16:13:57.869Z,100616.42
2018-09-20T16:18:41.193Z,100623.72
2018-09-20T16:23:24.695Z,100622.93
2018-09-20T16:28:30.911Z,100627.37
2018-09-20T16:33:36.270Z,100624.44
2018-09-20T16:38:35.613Z,100625.77
2018-09-20T16:43:18.944Z,100629.73
2018-09-20T16:48:02.443Z,100624.36
2018-09-20T16:52:47.219Z,100627.88
2018-09-20T16:57:31.521Z,100627.19
2018-09-20T17:02:20.684Z,100632.20
2018-09-20T17:07:06.690Z,100639.05
2018-09-20T17:11:51.733Z,100646.58
2018-09-20T17:16:37.167Z,100653.67
2018-09-20T17:22:49.853Z,100661.98
2018-09-20T17:27:33.552Z,100665.30
2018-09-20T17:32:16.940Z,100667.36
2018-09-20T17:37:02.315Z,100672.58
2018-09-20T17:41:47.380Z,100672.56
2018-09-20T17:46:31.983Z,100668.89
2018-09-20T17:51:17.531Z,100677.69
2018-09-20T17:56:02.731Z,100681.68
2018-09-20T18:00:46.434Z,100680.41
2018-09-20T18:05:30.954Z,100682.88
2018-09-20T18:10:14.360Z,100683.12
2018-09-20T18:15:00.052Z,100692.05
2018-09-20T18:29:08.889Z,100691.63
2018-09-20T18:33:54.317Z,100687.59
2018-09-20T18:38:37.864Z,100680.94
2018-09-20T18:43:21.402Z,100683.42
2018-09-20T18:48:04.899Z,100676.92
2018-09-20T18:52:48.482Z,100675.25
2018-09-20T18:57:32.142Z,100678.72
2018-09-20T19:02:16.857Z,100676.39
2018-09-20T19:07:01.473Z,100678.48
2018-09-20T19:11:45.651Z,100668.34
2018-09-20T19:16:29.524Z,100667.99
2018-09-20T19:21:13.077Z,100663.93
2018-09-20T19:25:56.621Z,100665.25
2018-09-20T19:30:40.227Z,100659.83
2018-09-20T19:36:13.870Z,100661.45
2018-09-20T19:40:56.955Z,100654.53
2018-09-20T19:45:41.107Z,100654.19
2018-09-20T19:50:24.033Z,100650.13
2018-09-20T19:55:08.073Z,100654.66
2018-09-20T19:59:50.983Z,100646.25
2018-09-20T20:04:34.076Z,100654.27
2018-09-20T20:09:16.993Z,100654.12
2018-09-20T20:14:00.002Z,100655.20
2018-09-20T20:18:42.927Z,100658.76
2018-09-20T20:23:25.997Z,100654.81
2018-09-20T20:28:08.903Z,100651.47
2018-09-20T20:32:51.837Z,100644.70
2018-09-20T20:37:35.924Z,100637.38
2018-09-20T20:42:18.822Z,100637.10
2018-09-20T20:47:01.946Z,100632.95
2018-09-20T20:51:44.855Z,100632.83
2018-09-20T20:56:27.964Z,100628.56
2018-09-20T21:01:16.188Z,100626.88
2018-09-20T21:06:00.164Z,100620.76
2018-09-20T21:10:43.062Z,100624.05
2018-09-20T21:15:27.170Z,100614.70
2018-09-20T21:20:10.127Z,100616.91
2018-09-20T21:24:54.188Z,100612.78
2018-09-20T21:29:37.131Z,100616.47
2018-09-20T21:35:49.682Z,100619.83
2018-09-20T21:40:32.538Z,100603.30
2018-09-20T21:45:16.637Z,100595.02
2018-09-20T21:49:59.526Z,100592.91
2018-09-20T21:54:42.654Z,100590.55
2018-09-20T21:59:25.581Z,100594.91
2018-09-20T22:04:08.713Z,100587.95
2018-09-20T22:08:51.612Z,100591.49
2018-09-20T22:13:35.756Z,100590.74
2018-09-20T22:18:18.686Z,100590.03
2018-09-20T22:23:01.758Z,100591.49
2018-09-20T22:27:44.652Z,100595.77
2018-09-20T22:32:27.492Z,100596.13
2018-09-20T22:37:12.486Z,100589.00
2018-09-20T22:41:55.318Z,100589.80
2018-09-20T22:46:38.231Z,100589.33
2018-09-20T22:51:21.088Z,100593.78
2018-09-20T22:56:04.995Z,100592.75
2018-09-20T23:00:47.865Z,100592.20
2018-09-20T23:05:31.763Z,100594.59
2018-09-20T23:10:14.628Z,100597.94
2018-09-20T23:14:59.623Z,100590.90
2018-09-20T23:19:42.655Z,100584.88
2018-09-20T23:24:25.661Z,100582.08
2018-09-20T23:29:08.618Z,100577.75
2018-09-20T23:33:51.594Z,100582.36
2018-09-20T23:38:34.401Z,100577.55
2018-09-20T23:43:18.438Z,100578.81
2018-09-20T23:48:01.289Z,100580.38
2018-09-20T23:52:44.274Z,100570.79
2018-09-20T23:57:27.228Z,100571.66
